createdAt,value
2022-12-25T00:01:37.542Z,100550.09
2022-12-25T00:04:05.505Z,100554.41
2022-12-25T00:06:33.304Z,100563.05
2022-12-25T00:09:04.504Z,100568.88
2022-12-25T00:11:32.381Z,100576.90
2022-12-25T00:14:00.761Z,100586.21
2022-12-25T00:16:28.768Z,100592.11
2022-12-25T00:18:58.333Z,100592.52
2022-12-25T00:21:26.274Z,100595.73
2022-12-25T00:23:54.787Z,100598.39
2022-12-25T00:26:23.003Z,100602.73
2022-12-25T00:28:52.960Z,100602.82
2022-12-25T00:31:21.636Z,100605.05
2022-12-25T00:33:50.760Z,100607.05
2022-12-25T00:36:21.108Z,100605.17
2022-12-25T00:38:49.645Z,100614.41
2022-12-25T00:41:39.751Z,100623.27
2022-12-25T00:44:07.700Z,100628.36
2022-12-25T00:46:37.427Z,100638.52
2022-12-25T00:49:05.619Z,100646.40
2022-12-25T00:51:33.554Z,100650.92
2022-12-25T00:54:01.437Z,100649.42
2022-12-25T00:56:30.400Z,100663.08
2022-12-25T00:58:58.410Z,100664.54
2022-12-25T01:01:26.455Z,100665.51
2022-12-25T01:03:54.878Z,100673.38
2022-12-25T01:06:22.855Z,100674.48
2022-12-25T01:09:09.394Z,100672.88
2022-12-25T01:11:39.899Z,100680.50
2022-12-25T01:14:07.837Z,100685.77
2022-12-25T01:16:35.665Z,100688.23
2022-12-25T01:19:04.921Z,100688.38
2022-12-25T01:21:32.676Z,100681.83
2022-12-25T01:24:01.165Z,100677.41
2022-12-25T01:26:29.742Z,100675.29
2022-12-25T01:28:57.866Z,100673.21
2022-12-25T01:31:28.038Z,100672.80
2022-12-25T01:33:58.041Z,100674.02
2022-12-25T01:36:26.431Z,100674.45
2022-12-25T01:38:55.111Z,100671.48
2022-12-25T01:41:23.813Z,100677.92
2022-12-25T01:44:00.408Z,100669.86
2022-12-25T01:46:28.605Z,100673.10
2022-12-25T01:48:57.507Z,100678.23
2022-12-25T01:51:26.497Z,100688.59
2022-12-25T01:53:55.885Z,100689.11
2022-12-25T01:56:25.799Z,100691.11
2022-12-25T01:58:54.289Z,100688.17
2022-12-25T02:01:22.125Z,100686.02
2022-12-25T02:03:51.169Z,100687.45
2022-12-25T02:06:21.490Z,100684.88
2022-12-25T02:08:50.565Z,100680.70
2022-12-25T02:11:33.127Z,100677.23
2022-12-25T02:14:02.764Z,100674.66
2022-12-25T02:16:57.670Z,100672.77
2022-12-25T02:19:32.155Z,100676.50
2022-12-25T02:22:06.692Z,100679.50
2022-12-25T02:24:51.051Z,100675.91
2022-12-25T02:27:28.152Z,100667.72
2022-12-25T02:30:00.754Z,100656.75
2022-12-25T02:32:30.712Z,100661.25
2022-12-25T02:35:01.929Z,100668.00
2022-12-25T02:37:35.062Z,100668.55
2022-12-25T02:40:09.955Z,100670.10
2022-12-25T02:43:01.228Z,100670.68
2022-12-25T02:45:50.902Z,100671.35
2022-12-25T02:48:38.741Z,100672.35
2022-12-25T02:51:29.774Z,100676.11
2022-12-25T02:54:21.052Z,100684.79
2022-12-25T02:57:09.016Z,100690.40
2022-12-25T02:59:58.038Z,100686.88
2022-12-25T03:02:58.172Z,100687.58
2022-12-25T03:05:44.920Z,100686.63
2022-12-25T03:08:14.655Z,100687.14
2022-12-25T03:11:03.544Z,100685.88
2022-12-25T03:13:34.388Z,100682.25
2022-12-25T03:16:20.656Z,100689.61
2022-12-25T03:18:49.399Z,100684.84
2022-12-25T03:21:35.735Z,100686.67
2022-12-25T03:24:22.809Z,100690.36
2022-12-25T03:26:59.596Z,100694.20
2022-12-25T03:29:48.623Z,100694.14
2022-12-25T03:32:19.388Z,100692.15
2022-12-25T03:35:11.475Z,100688.09
2022-12-25T03:38:02.754Z,100690.77
2022-12-25T03:40:47.656Z,100691.80
2022-12-25T03:43:39.818Z,100691.09
2022-12-25T03:46:30.446Z,100687.54
2022-12-25T03:49:21.831Z,100685.18
2022-12-25T03:52:10.177Z,100685.35
2022-12-25T03:54:58.840Z,100688.90
2022-12-25T03:57:45.531Z,100698.70
2022-12-25T04:00:39.644Z,100701.12
2022-12-25T04:03:26.156Z,100706.38
2022-12-25T04:06:11.925Z,100708.09
2022-12-25T04:09:01.611Z,100712.34
2022-12-25T04:11:47.727Z,100716.66
2022-12-25T04:14:34.714Z,100713.03
2022-12-25T04:17:21.033Z,100701.45
2022-12-25T04:20:08.136Z,100701.61
2022-12-25T04:22:54.395Z,100704.73
2022-12-25T04:25:41.180Z,100698.78
2022-12-25T04:28:29.660Z,100686.05
2022-12-25T04:31:19.190Z,100699.23
2022-12-25T04:34:05.564Z,100715.55
2022-12-25T04:36:34.426Z,100724.99
2022-12-25T04:39:02.230Z,100714.92
2022-12-25T04:41:30.128Z,100710.13
2022-12-25T04:43:58.081Z,100716.23
2022-12-25T04:46:28.941Z,100729.27
2022-12-25T04:48:57.387Z,100728.02
2022-12-25T04:51:26.229Z,100728.23
2022-12-25T04:53:54.094Z,100732.48
2022-12-25T04:56:22.207Z,100732.16
2022-12-25T04:58:50.412Z,100734.72
2022-12-25T05:01:18.349Z,100730.99
2022-12-25T05:03:50.721Z,100723.73
2022-12-25T05:06:18.802Z,100722.23
2022-12-25T05:08:46.924Z,100723.83
2022-12-25T05:11:15.455Z,100724.87
2022-12-25T05:13:44.370Z,100725.45
2022-12-25T05:16:18.225Z,100724.83
2022-12-25T05:18:48.215Z,100722.66
2022-12-25T05:21:16.572Z,100724.25
2022-12-25T05:23:48.140Z,100721.29
2022-12-25T05:26:16.691Z,100727.05
2022-12-25T05:28:44.608Z,100736.33
2022-12-25T05:31:15.288Z,100737.48
2022-12-25T05:33:43.478Z,100738.73
2022-12-25T05:36:12.776Z,100743.68
2022-12-25T05:38:40.941Z,100747.89
2022-12-25T05:41:09.369Z,100756.59
2022-12-25T05:43:39.015Z,100758.44
2022-12-25T05:46:07.976Z,100756.46
2022-12-25T05:48:36.718Z,100762.29
2022-12-25T05:51:05.805Z,100761.40
2022-12-25T05:53:34.043Z,100769.70
2022-12-25T05:56:03.196Z,100773.76
2022-12-25T05:58:31.484Z,100773.58
2022-12-25T06:00:59.578Z,100774.41
2022-12-25T06:03:27.803Z,100776.66
2022-12-25T06:05:55.781Z,100777.25
2022-12-25T06:08:23.799Z,100781.11
2022-12-25T06:10:53.156Z,100779.52
2022-12-25T06:13:21.306Z,100785.04
2022-12-25T06:15:49.176Z,100791.94
2022-12-25T06:18:17.143Z,100797.54
2022-12-25T06:20:46.540Z,100805.78
2022-12-25T06:23:14.736Z,100815.38
2022-12-25T06:25:43.329Z,100818.04
2022-12-25T06:28:11.338Z,100819.80
2022-12-25T06:30:41.321Z,100826.30
2022-12-25T06:33:09.300Z,100830.10
2022-12-25T06:35:40.254Z,100834.57
2022-12-25T06:38:08.188Z,100837.96
2022-12-25T06:40:37.311Z,100847.19
2022-12-25T06:43:08.439Z,100848.88
2022-12-25T06:45:36.567Z,100856.36
2022-12-25T06:48:04.848Z,100855.40
2022-12-25T06:50:33.003Z,100859.86
2022-12-25T06:53:00.895Z,100860.34
2022-12-25T06:55:29.065Z,100866.36
2022-12-25T06:57:59.529Z,100872.64
2022-12-25T07:00:27.590Z,100869.71
2022-12-25T07:02:57.211Z,100877.42
2022-12-25T07:05:25.131Z,100880.67
2022-12-25T07:07:53.183Z,100888.58
2022-12-25T07:10:21.289Z,100892.96
2022-12-25T07:12:49.078Z,100897.42
2022-12-25T07:15:17.555Z,100897.21
2022-12-25T07:17:45.728Z,100894.25
2022-12-25T07:20:13.525Z,100895.54
2022-12-25T07:22:41.595Z,100898.60
2022-12-25T07:25:09.817Z,100903.78
2022-12-25T07:27:39.829Z,100907.52
2022-12-25T07:30:11.525Z,100913.47
2022-12-25T07:32:40.954Z,100914.63
2022-12-25T07:35:12.711Z,100918.61
2022-12-25T07:37:40.669Z,100923.27
2022-12-25T07:40:09.855Z,100932.35
2022-12-25T07:42:37.749Z,100933.05
2022-12-25T07:45:09.734Z,100934.46
2022-12-25T07:47:37.577Z,100936.91
2022-12-25T07:50:08.204Z,100933.54
2022-12-25T07:52:43.653Z,100933.91
2022-12-25T07:55:12.816Z,100936.42
2022-12-25T07:57:40.690Z,100944.70
2022-12-25T08:00:09.951Z,100952.64
2022-12-25T08:02:41.750Z,100959.67
2022-12-25T08:05:10.265Z,100955.20
2022-12-25T08:07:40.037Z,100961.16
2022-12-25T08:10:08.506Z,100962.09
2022-12-25T08:12:36.295Z,100966.63
2022-12-25T08:15:04.801Z,100979.17
2022-12-25T08:17:34.149Z,100983.85
2022-12-25T08:20:01.934Z,100984.49
2022-12-25T08:22:29.741Z,100987.04
2022-12-25T08:24:57.790Z,100992.95
2022-12-25T08:27:25.566Z,100993.02
2022-12-25T08:29:53.334Z,100992.52
2022-12-25T08:32:21.022Z,100988.75
2022-12-25T08:34:49.075Z,100987.91
2022-12-25T08:37:17.000Z,100995.71
2022-12-25T08:39:44.932Z,101000.62
2022-12-25T08:42:14.801Z,101006.66
2022-12-25T08:44:42.663Z,101007.62
2022-12-25T08:47:10.623Z,101013.05
2022-12-25T08:49:39.735Z,101016.52
2022-12-25T08:52:07.718Z,101020.00
2022-12-25T08:54:35.969Z,101018.23
2022-12-25T08:57:05.676Z,101019.05
2022-12-25T08:59:33.366Z,101020.06
2022-12-25T09:02:01.516Z,101020.89
2022-12-25T09:04:30.351Z,101026.17
2022-12-25T09:06:58.235Z,101024.40
2022-12-25T09:09:27.280Z,101026.73
2022-12-25T09:11:55.041Z,101033.92
2022-12-25T09:14:25.256Z,101036.23
2022-12-25T09:16:53.601Z,101036.73
2022-12-25T09:19:21.607Z,101037.44
2022-12-25T09:21:49.625Z,101041.42
2022-12-25T09:24:17.545Z,101043.83
2022-12-25T09:26:45.232Z,101044.15
2022-12-25T09:29:14.230Z,101043.55
2022-12-25T09:31:42.211Z,101044.43
2022-12-25T09:34:12.604Z,101049.29
2022-12-25T09:36:45.376Z,101046.83
2022-12-25T09:39:13.021Z,101047.52
2022-12-25T09:41:49.426Z,101041.61
2022-12-25T09:44:19.055Z,101035.61
2022-12-25T09:46:50.234Z,101036.47
2022-12-25T09:49:21.822Z,101038.32
2022-12-25T09:51:53.176Z,101041.02
2022-12-25T09:54:27.085Z,101042.96
2022-12-25T09:56:54.863Z,101045.84
2022-12-25T09:59:25.120Z,101045.40
2022-12-25T10:02:00.952Z,101040.16
2022-12-25T10:04:40.501Z,101039.34
2022-12-25T10:07:16.543Z,101035.56
2022-12-25T10:09:53.493Z,101033.54
2022-12-25T10:12:28.122Z,101032.11
2022-12-25T10:15:02.831Z,101030.84
2022-12-25T10:17:37.291Z,101031.04
2022-12-25T10:20:10.342Z,101033.52
2022-12-25T10:22:40.741Z,101030.89
2022-12-25T10:25:14.720Z,101031.65
2022-12-25T10:27:43.307Z,101033.96
2022-12-25T10:30:16.006Z,101032.96
2022-12-25T10:32:44.450Z,101036.52
2022-12-25T10:35:13.838Z,101036.23
2022-12-25T10:37:46.299Z,101041.00
2022-12-25T10:40:27.829Z,101040.74
2022-12-25T10:42:57.543Z,101045.11
2022-12-25T10:45:25.512Z,101048.81
2022-12-25T10:48:06.799Z,101055.42
2022-12-25T10:50:42.346Z,101058.38
2022-12-25T10:53:18.303Z,101054.38
2022-12-25T10:55:54.281Z,101047.02
2022-12-25T10:58:22.003Z,101045.85
2022-12-25T11:01:00.553Z,101049.40
2022-12-25T11:03:30.766Z,101047.88
2022-12-25T11:05:58.822Z,101044.05
2022-12-25T11:08:28.576Z,101042.36
2022-12-25T11:10:57.725Z,101043.13
2022-12-25T11:13:26.514Z,101038.85
2022-12-25T11:16:05.680Z,101041.54
2022-12-25T11:18:36.126Z,101036.99
2022-12-25T11:21:14.198Z,101038.77
2022-12-25T11:23:46.421Z,101034.27
2022-12-25T11:26:16.866Z,101034.06
2022-12-25T11:28:45.486Z,101027.16
2022-12-25T11:31:15.326Z,101028.79
2022-12-25T11:33:45.830Z,101026.05
2022-12-25T11:36:17.764Z,101025.91
2022-12-25T11:38:45.559Z,101022.74
2022-12-25T11:41:19.828Z,101023.52
2022-12-25T11:43:50.475Z,101023.20
2022-12-25T11:46:21.798Z,101028.31
2022-12-25T11:48:55.759Z,101029.98
2022-12-25T11:51:25.528Z,101037.30
2022-12-25T11:53:55.919Z,101035.92
2022-12-25T11:56:30.593Z,101037.53
2022-12-25T11:59:02.417Z,101042.59
2022-12-25T12:01:38.562Z,101046.14
2022-12-25T12:04:09.099Z,101042.83
2022-12-25T12:06:45.649Z,101041.25
2022-12-25T12:09:23.339Z,101038.50
2022-12-25T12:11:58.574Z,101043.34
2022-12-25T12:14:34.750Z,101049.83
2022-12-25T12:17:02.601Z,101050.64
2022-12-25T12:19:34.007Z,101049.95
2022-12-25T12:22:03.243Z,101048.27
2022-12-25T12:24:35.000Z,101054.90
2022-12-25T12:27:05.159Z,101058.14
2022-12-25T12:29:38.760Z,101058.77
2022-12-25T12:32:21.337Z,101058.19
2022-12-25T12:34:50.034Z,101055.52
2022-12-25T12:37:24.847Z,101055.44
2022-12-25T12:39:54.201Z,101054.27
2022-12-25T12:42:25.632Z,101055.25
2022-12-25T12:44:54.459Z,101054.33
2022-12-25T12:47:30.180Z,101051.22
2022-12-25T12:49:59.989Z,101047.09
2022-12-25T12:52:32.165Z,101044.75
2022-12-25T12:55:01.424Z,101042.52
2022-12-25T12:57:32.259Z,101046.46
2022-12-25T13:00:06.466Z,101048.15
2022-12-25T13:02:51.983Z,101046.17
2022-12-25T13:05:34.016Z,101042.80
2022-12-25T13:08:09.508Z,101043.86
2022-12-25T13:10:39.948Z,101039.48
2022-12-25T13:13:13.844Z,101035.95
2022-12-25T13:15:45.937Z,101034.67
2022-12-25T13:18:21.262Z,101035.02
2022-12-25T13:20:55.160Z,101040.71
2022-12-25T13:23:25.426Z,101054.40
2022-12-25T13:25:54.999Z,101060.38
2022-12-25T13:28:27.501Z,101065.15
2022-12-25T13:31:02.189Z,101062.85
2022-12-25T13:33:30.617Z,101064.95
2022-12-25T13:35:58.655Z,101067.02
2022-12-25T13:38:27.751Z,101065.16
2022-12-25T13:41:14.980Z,101069.71
2022-12-25T13:43:45.287Z,101066.80
2022-12-25T13:46:14.181Z,101070.48
2022-12-25T13:48:44.843Z,101073.48
2022-12-25T13:51:16.594Z,101075.66
2022-12-25T13:53:45.729Z,101076.29
2022-12-25T13:56:15.224Z,101079.16
2022-12-25T13:58:47.228Z,101087.55
2022-12-25T14:01:19.816Z,101084.63
2022-12-25T14:03:48.036Z,101078.44
2022-12-25T14:06:18.231Z,101077.69
2022-12-25T14:08:47.120Z,101079.66
2022-12-25T14:11:17.933Z,101080.33
2022-12-25T14:13:47.038Z,101082.19
2022-12-25T14:16:17.103Z,101087.91
2022-12-25T14:18:51.485Z,101094.99
2022-12-25T14:21:24.269Z,101095.45
2022-12-25T14:23:52.159Z,101091.95
2022-12-25T14:26:22.011Z,101092.34
2022-12-25T14:28:51.556Z,101090.03
2022-12-25T14:31:19.980Z,101091.30
2022-12-25T14:33:49.722Z,101087.05
2022-12-25T14:36:18.481Z,101088.66
2022-12-25T14:38:55.143Z,101092.45
2022-12-25T14:41:34.284Z,101094.61
2022-12-25T14:44:03.255Z,101092.65
2022-12-25T14:46:37.329Z,101093.80
2022-12-25T14:49:06.510Z,101094.86
2022-12-25T14:51:38.117Z,101095.02
2022-12-25T14:54:14.451Z,101096.00
2022-12-25T14:56:46.524Z,101098.95
2022-12-25T14:59:16.984Z,101103.52
2022-12-25T15:01:49.588Z,101107.30
2022-12-25T15:04:18.228Z,101109.55
2022-12-25T15:06:53.077Z,101108.83
2022-12-25T15:09:21.449Z,101107.84
2022-12-25T15:11:49.829Z,101109.41
2022-12-25T15:14:18.293Z,101109.69
2022-12-25T15:16:47.405Z,101116.33
2022-12-25T15:19:21.894Z,101117.10
2022-12-25T15:21:53.106Z,101111.67
2022-12-25T15:24:21.146Z,101103.77
2022-12-25T15:26:48.902Z,101096.16
2022-12-25T15:29:23.687Z,101092.02
2022-12-25T15:32:05.055Z,101093.55
2022-12-25T15:34:32.962Z,101095.39
2022-12-25T15:37:01.036Z,101109.09
2022-12-25T15:39:29.325Z,101111.92
2022-12-25T15:42:12.984Z,101113.47
2022-12-25T15:44:41.849Z,101112.84
2022-12-25T15:47:10.863Z,101121.13
2022-12-25T15:49:41.680Z,101125.16
2022-12-25T15:52:13.651Z,101125.98
2022-12-25T15:54:41.930Z,101125.59
2022-12-25T15:57:16.305Z,101119.59
2022-12-25T15:59:45.054Z,101118.21
2022-12-25T16:02:14.755Z,101119.38
2022-12-25T16:04:44.318Z,101120.11
2022-12-25T16:07:15.239Z,101110.77
2022-12-25T16:09:45.907Z,101111.83
2022-12-25T16:12:13.891Z,101110.32
2022-12-25T16:14:41.685Z,101103.14
2022-12-25T16:17:12.579Z,101107.15
2022-12-25T16:19:48.731Z,101111.76
2022-12-25T16:22:19.825Z,101113.48
2022-12-25T16:24:48.149Z,101116.34
2022-12-25T16:27:15.926Z,101115.06
2022-12-25T16:29:44.668Z,101119.70
2022-12-25T16:32:12.985Z,101121.80
2022-12-25T16:34:44.123Z,101123.20
2022-12-25T16:37:13.252Z,101124.58
2022-12-25T16:39:41.291Z,101125.97
2022-12-25T16:42:11.064Z,101125.02
2022-12-25T16:44:39.191Z,101130.08
2022-12-25T16:47:08.226Z,101126.27
2022-12-25T16:49:35.991Z,101117.09
2022-12-25T16:52:04.144Z,101112.48
2022-12-25T16:54:31.903Z,101108.48
2022-12-25T16:56:59.780Z,101104.98
2022-12-25T16:59:28.541Z,101104.69
2022-12-25T17:01:56.721Z,101101.84
2022-12-25T17:04:28.179Z,101113.44
2022-12-25T17:06:57.482Z,101116.18
2022-12-25T17:09:25.426Z,101115.27
2022-12-25T17:11:53.151Z,101108.95
2022-12-25T17:14:20.865Z,101100.47
2022-12-25T17:16:49.018Z,101102.36
2022-12-25T17:19:17.927Z,101099.84
2022-12-25T17:21:46.676Z,101100.46
2022-12-25T17:24:14.691Z,101103.41
2022-12-25T17:26:44.130Z,101096.05
2022-12-25T17:29:14.761Z,101093.17
2022-12-25T17:31:46.566Z,101089.41
2022-12-25T17:34:14.645Z,101088.96
2022-12-25T17:36:42.429Z,101089.59
2022-12-25T17:39:12.099Z,101094.14
2022-12-25T17:41:40.453Z,101089.36
2022-12-25T17:44:08.699Z,101077.09
2022-12-25T17:46:37.642Z,101070.88
2022-12-25T17:49:05.545Z,101074.21
2022-12-25T17:51:33.685Z,101073.65
2022-12-25T17:54:02.837Z,101072.27
2022-12-25T17:56:31.585Z,101065.47
2022-12-25T17:59:02.756Z,101058.45
2022-12-25T18:01:36.968Z,101053.00
2022-12-25T18:04:05.644Z,101049.02
2022-12-25T18:06:34.794Z,101050.10
2022-12-25T18:09:05.495Z,101056.11
2022-12-25T18:11:33.954Z,101066.45
2022-12-25T18:14:05.757Z,101073.20
2022-12-25T18:16:36.357Z,101073.98
2022-12-25T18:19:04.291Z,101077.64
2022-12-25T18:21:32.135Z,101080.92
2022-12-25T18:24:05.141Z,101084.05
2022-12-25T18:26:35.871Z,101084.94
2022-12-25T18:29:04.204Z,101085.52
2022-12-25T18:31:36.086Z,101088.81
2022-12-25T18:34:04.848Z,101088.82
2022-12-25T18:36:32.763Z,101087.16
2022-12-25T18:39:00.868Z,101083.80
2022-12-25T18:41:52.105Z,101078.58
2022-12-25T18:44:47.871Z,101077.73
2022-12-25T18:47:24.902Z,101078.44
2022-12-25T18:49:52.878Z,101073.88
2022-12-25T18:55:04.553Z,101078.11
2022-12-25T18:57:32.687Z,101072.71
2022-12-25T19:00:16.936Z,101068.29
2022-12-25T19:02:50.297Z,101059.21
2022-12-25T19:05:32.190Z,101051.75
2022-12-25T19:08:00.058Z,101050.23
2022-12-25T19:10:29.881Z,101042.16
2022-12-25T19:13:01.232Z,101043.23
2022-12-25T19:15:29.339Z,101040.48
2022-12-25T19:18:00.236Z,101043.65
2022-12-25T19:20:28.517Z,101041.71
2022-12-25T19:22:56.365Z,101040.25
2022-12-25T19:25:24.133Z,101038.30
2022-12-25T19:27:51.995Z,101037.38
2022-12-25T19:30:19.965Z,101034.77
2022-12-25T19:32:48.169Z,101028.46
2022-12-25T19:35:16.499Z,101029.48
2022-12-25T19:37:44.553Z,101021.00
2022-12-25T19:40:13.189Z,101021.30
2022-12-25T19:42:41.027Z,101020.69
2022-12-25T19:45:09.687Z,101023.92
2022-12-25T19:47:37.709Z,101026.02
2022-12-25T19:50:06.636Z,101020.80
2022-12-25T19:52:34.378Z,101019.26
2022-12-25T19:55:02.203Z,101027.05
2022-12-25T19:57:30.222Z,101025.63
2022-12-25T19:59:58.023Z,101029.09
2022-12-25T20:02:25.958Z,101030.63
2022-12-25T20:04:54.532Z,101027.92
2022-12-25T20:07:22.530Z,101028.23
2022-12-25T20:09:52.223Z,101032.94
2022-12-25T20:12:20.311Z,101030.84
2022-12-25T20:14:48.916Z,101026.85
2022-12-25T20:17:16.768Z,101027.86
2022-12-25T20:19:46.289Z,101023.06
2022-12-25T20:22:15.519Z,101021.67
2022-12-25T20:24:44.032Z,101022.59
2022-12-25T20:27:16.435Z,101018.09
2022-12-25T20:29:45.283Z,101013.55
2022-12-25T20:32:14.896Z,101010.86
2022-12-25T20:34:42.768Z,101007.66
2022-12-25T20:37:12.124Z,101005.40
2022-12-25T20:39:40.818Z,101002.40
2022-12-25T20:42:19.983Z,100996.02
2022-12-25T20:44:47.858Z,100992.91
2022-12-25T20:47:16.036Z,100985.95
2022-12-25T20:49:43.790Z,100983.14
2022-12-25T20:52:15.711Z,100983.36
2022-12-25T20:54:43.654Z,100974.33
2022-12-25T20:57:13.066Z,100969.84
2022-12-25T20:59:43.245Z,100963.23
2022-12-25T21:02:35.955Z,100963.64
2022-12-25T21:04:59.772Z,100965.73
2022-12-25T21:07:27.901Z,100963.20
2022-12-25T21:09:55.711Z,100961.32
2022-12-25T21:12:24.613Z,100955.09
2022-12-25T21:14:55.753Z,100952.23
2022-12-25T21:17:23.839Z,100952.69
2022-12-25T21:19:54.762Z,100955.04
2022-12-25T21:22:22.930Z,100952.64
2022-12-25T21:24:52.244Z,100951.08
2022-12-25T21:27:20.422Z,100951.59
2022-12-25T21:29:48.513Z,100950.30
2022-12-25T21:32:34.102Z,100948.94
2022-12-25T21:35:02.143Z,100952.86
2022-12-25T21:37:32.463Z,100949.77
2022-12-25T21:40:00.554Z,100946.01
2022-12-25T21:42:29.123Z,100942.64
2022-12-25T21:44:58.465Z,100938.75
2022-12-25T21:47:26.501Z,100941.20
2022-12-25T21:50:38.903Z,100938.45
2022-12-25T21:53:15.317Z,100931.23
2022-12-25T21:55:54.730Z,100926.72
2022-12-25T21:58:22.915Z,100919.81
2022-12-25T22:00:53.887Z,100914.13
2022-12-25T22:03:23.440Z,100913.21
2022-12-25T22:06:16.071Z,100906.36
2022-12-25T22:08:48.759Z,100905.38
2022-12-25T22:11:38.096Z,100903.18
2022-12-25T22:14:52.928Z,100898.69
2022-12-25T22:17:35.141Z,100896.44
2022-12-25T22:20:03.695Z,100896.98
2022-12-25T22:22:32.997Z,100888.92
2022-12-25T22:25:02.083Z,100884.13
2022-12-25T22:27:32.216Z,100879.38
2022-12-25T22:30:00.583Z,100872.23
2022-12-25T22:32:28.872Z,100863.95
2022-12-25T22:34:56.949Z,100867.10
2022-12-25T22:37:25.522Z,100876.10
2022-12-25T22:39:53.495Z,100860.63
2022-12-25T22:42:21.972Z,100854.91
2022-12-25T22:44:49.964Z,100858.35
2022-12-25T22:47:19.047Z,100859.52
2022-12-25T22:49:52.481Z,100861.45
2022-12-25T22:52:20.565Z,100859.86
2022-12-25T22:54:51.257Z,100853.56
2022-12-25T22:57:19.556Z,100838.91
2022-12-25T22:59:49.855Z,100830.42
2022-12-25T23:02:19.665Z,100825.17
2022-12-25T23:04:52.195Z,100824.43
2022-12-25T23:07:22.617Z,100824.65
2022-12-25T23:09:50.919Z,100820.70
2022-12-25T23:12:37.228Z,100820.73
2022-12-25T23:15:08.300Z,100816.90
2022-12-25T23:17:55.895Z,100817.48
2022-12-25T23:20:42.301Z,100803.63
2022-12-25T23:23:31.429Z,100794.63
2022-12-25T23:26:09.695Z,100794.38
2022-12-25T23:28:57.332Z,100796.56
2022-12-25T23:31:31.774Z,100799.59
2022-12-25T23:34:01.067Z,100805.91
2022-12-25T23:36:29.017Z,100805.84
2022-12-25T23:38:57.631Z,100801.56
2022-12-25T23:41:28.460Z,100799.40
2022-12-25T23:43:56.756Z,100803.57
2022-12-25T23:46:24.634Z,100805.46
2022-12-25T23:48:52.557Z,100802.33
2022-12-25T23:51:20.427Z,100792.81
2022-12-25T23:53:50.030Z,100785.52
2022-12-25T23:56:18.155Z,100780.84
2022-12-25T23:58:51.180Z,100771.90
